createdAt,value
2017-12-31T00:00:28.057Z,11.22
2017-12-31T00:02:59.772Z,11.11
2017-12-31T00:05:31.396Z,11.08
2017-12-31T00:08:02.149Z,11.04
2017-12-31T00:10:32.318Z,11.08
2017-12-31T00:13:03.832Z,11.02
2017-12-31T00:15:35.977Z,10.94
2017-12-31T00:18:08.807Z,10.95
2017-12-31T00:20:40.696Z,10.89
2017-12-31T00:23:12.780Z,10.89
2017-12-31T00:25:47.044Z,11.01
2017-12-31T00:28:17.329Z,11.03
2017-12-31T00:30:49.823Z,10.97
2017-12-31T00:33:22.391Z,10.97
2017-12-31T00:35:58.957Z,10.95
2017-12-31T00:38:36.021Z,11.00
2017-12-31T00:41:07.970Z,10.97
2017-12-31T00:43:40.702Z,10.99
2017-12-31T00:46:11.184Z,10.98
2017-12-31T00:48:41.829Z,10.94
2017-12-31T00:51:11.966Z,11.03
2017-12-31T00:53:42.762Z,11.03
2017-12-31T00:56:13.106Z,11.05
2017-12-31T00:58:43.395Z,11.10
2017-12-31T01:01:14.088Z,11.07
2017-12-31T01:03:44.474Z,11.12
2017-12-31T01:06:16.612Z,11.10
2017-12-31T01:08:46.624Z,11.11
2017-12-31T01:11:17.117Z,11.11
2017-12-31T01:13:47.062Z,11.08
2017-12-31T01:16:16.965Z,11.11
2017-12-31T01:18:47.516Z,11.06
2017-12-31T01:21:17.767Z,11.07
2017-12-31T01:23:47.696Z,11.10
2017-12-31T01:26:18.340Z,11.05
2017-12-31T01:28:49.100Z,10.95
2017-12-31T01:31:18.949Z,11.04
2017-12-31T01:33:48.925Z,11.08
2017-12-31T01:36:19.843Z,10.99
2017-12-31T01:38:51.037Z,11.19
2017-12-31T01:41:21.103Z,11.08
2017-12-31T01:43:51.435Z,11.03
2017-12-31T01:46:21.800Z,11.07
2017-12-31T01:49:00.976Z,11.21
2017-12-31T01:51:31.714Z,11.13
2017-12-31T01:54:01.661Z,11.20
2017-12-31T01:56:31.395Z,11.12
2017-12-31T01:59:01.142Z,11.15
2017-12-31T02:01:31.791Z,11.16
2017-12-31T02:04:02.262Z,11.07
2017-12-31T02:06:35.540Z,11.20
2017-12-31T02:09:06.408Z,11.28
2017-12-31T02:11:36.836Z,11.22
2017-12-31T02:14:07.516Z,11.15
2017-12-31T02:16:38.168Z,11.05
2017-12-31T02:19:09.556Z,11.12
2017-12-31T02:21:39.730Z,11.15
2017-12-31T02:24:09.250Z,11.09
2017-12-31T02:26:39.203Z,11.02
2017-12-31T02:29:08.966Z,11.00
2017-12-31T02:31:39.444Z,11.16
2017-12-31T02:34:09.342Z,11.09
2017-12-31T02:36:39.412Z,11.09
2017-12-31T02:39:09.544Z,11.00
2017-12-31T02:41:39.361Z,11.05
2017-12-31T02:44:08.874Z,11.10
2017-12-31T02:46:39.122Z,11.14
2017-12-31T02:49:09.601Z,11.01
2017-12-31T02:51:39.741Z,11.03
2017-12-31T02:54:09.453Z,11.14
2017-12-31T02:56:40.606Z,11.04
2017-12-31T02:59:13.075Z,11.02
2017-12-31T03:01:43.260Z,11.03
2017-12-31T03:04:14.354Z,10.96
2017-12-31T03:06:44.420Z,10.86
2017-12-31T03:09:14.832Z,10.84
2017-12-31T03:11:44.477Z,10.85
2017-12-31T03:14:13.983Z,10.74
2017-12-31T03:16:44.877Z,10.75
2017-12-31T03:19:14.347Z,10.80
2017-12-31T03:21:45.856Z,10.78
2017-12-31T03:24:15.525Z,10.78
2017-12-31T03:26:45.395Z,10.73
2017-12-31T03:29:15.875Z,10.71
2017-12-31T03:31:46.046Z,10.66
2017-12-31T03:34:16.385Z,10.58
2017-12-31T03:36:46.403Z,10.47
2017-12-31T03:39:16.612Z,10.51
2017-12-31T03:41:46.311Z,10.61
2017-12-31T03:44:16.518Z,10.70
2017-12-31T03:46:46.400Z,10.59
2017-12-31T03:49:16.082Z,10.53
2017-12-31T03:51:46.141Z,10.51
2017-12-31T03:54:16.077Z,10.39
2017-12-31T03:56:45.804Z,10.45
2017-12-31T03:59:16.163Z,10.28
2017-12-31T04:01:45.994Z,10.38
2017-12-31T04:04:15.612Z,10.28
2017-12-31T04:06:45.258Z,10.27
2017-12-31T04:09:15.181Z,10.27
2017-12-31T04:11:50.049Z,10.23
2017-12-31T04:14:20.023Z,10.24
2017-12-31T04:16:49.674Z,10.27
2017-12-31T04:19:19.693Z,10.18
2017-12-31T04:21:49.481Z,10.23
2017-12-31T04:24:19.257Z,10.20
2017-12-31T04:26:49.099Z,10.13
2017-12-31T04:29:18.736Z,10.24
2017-12-31T04:31:48.682Z,10.18
2017-12-31T04:34:18.106Z,10.16
2017-12-31T04:36:47.798Z,10.16
2017-12-31T04:39:18.000Z,10.08
2017-12-31T04:41:48.179Z,10.13
2017-12-31T04:44:17.910Z,10.12
2017-12-31T04:46:47.980Z,9.97
2017-12-31T04:49:17.759Z,10.06
2017-12-31T04:51:47.426Z,10.09
2017-12-31T04:54:17.319Z,10.25
2017-12-31T04:56:47.124Z,10.14
2017-12-31T04:59:16.768Z,9.91
2017-12-31T05:01:47.187Z,9.94
2017-12-31T05:04:17.109Z,10.10
2017-12-31T05:06:47.625Z,9.95
2017-12-31T05:09:17.545Z,9.93
2017-12-31T05:11:47.549Z,9.94
2017-12-31T05:14:17.785Z,9.96
2017-12-31T05:16:47.692Z,10.15
2017-12-31T05:19:17.085Z,10.13
2017-12-31T05:21:47.306Z,9.80
2017-12-31T05:24:17.056Z,9.96
2017-12-31T05:26:47.140Z,10.13
2017-12-31T05:29:17.186Z,9.90
2017-12-31T05:31:46.848Z,9.86
2017-12-31T05:34:16.765Z,9.85
2017-12-31T05:36:46.957Z,9.93
2017-12-31T05:39:16.631Z,9.72
2017-12-31T05:41:46.409Z,9.73
2017-12-31T05:44:16.345Z,9.73
2017-12-31T05:46:46.067Z,9.71
2017-12-31T05:49:15.902Z,9.64
2017-12-31T05:51:45.497Z,9.64
2017-12-31T05:54:15.102Z,9.68
2017-12-31T05:56:44.710Z,9.69
2017-12-31T05:59:15.249Z,9.56
2017-12-31T06:01:45.000Z,9.52
2017-12-31T06:04:14.573Z,9.53
2017-12-31T06:06:44.700Z,9.54
2017-12-31T06:09:14.302Z,9.43
2017-12-31T06:11:46.072Z,9.53
2017-12-31T06:14:17.455Z,9.55
2017-12-31T06:16:48.898Z,9.44
2017-12-31T06:19:18.752Z,9.41
2017-12-31T06:21:48.583Z,9.38
2017-12-31T06:24:18.311Z,9.51
2017-12-31T06:26:48.156Z,9.44
2017-12-31T06:29:17.905Z,9.50
2017-12-31T06:31:48.044Z,9.58
2017-12-31T06:34:17.438Z,9.55
2017-12-31T06:36:47.124Z,9.58
2017-12-31T06:39:17.019Z,9.71
2017-12-31T06:41:46.856Z,9.64
2017-12-31T06:44:19.589Z,9.69
2017-12-31T06:46:49.110Z,9.76
2017-12-31T06:49:18.511Z,9.89
2017-12-31T06:51:49.899Z,9.91
2017-12-31T06:54:19.339Z,9.93
2017-12-31T06:56:49.300Z,10.08
2017-12-31T06:59:19.277Z,10.08
2017-12-31T07:01:49.077Z,10.05
2017-12-31T07:04:18.898Z,10.22
2017-12-31T07:06:48.481Z,10.29
2017-12-31T07:09:18.093Z,10.26
2017-12-31T07:11:48.578Z,10.43
2017-12-31T07:14:18.660Z,10.50
2017-12-31T07:16:48.718Z,10.65
2017-12-31T07:19:18.390Z,10.66
2017-12-31T07:21:48.215Z,10.70
2017-12-31T07:24:17.981Z,10.67
2017-12-31T07:26:50.644Z,10.84
2017-12-31T07:29:20.417Z,10.90
2017-12-31T07:31:50.270Z,10.84
2017-12-31T07:34:22.919Z,10.96
2017-12-31T07:36:54.749Z,11.05
2017-12-31T07:39:24.984Z,11.11
2017-12-31T07:41:55.602Z,11.13
2017-12-31T07:44:25.244Z,11.24
2017-12-31T07:46:54.839Z,11.18
2017-12-31T07:49:25.445Z,11.23
2017-12-31T07:51:58.154Z,11.33
2017-12-31T07:54:28.958Z,11.26
2017-12-31T07:56:58.970Z,11.28
2017-12-31T07:59:28.831Z,11.41
2017-12-31T08:01:58.279Z,11.39
2017-12-31T08:04:28.421Z,11.43
2017-12-31T08:07:03.800Z,11.46
2017-12-31T08:09:36.108Z,11.49
2017-12-31T08:12:05.883Z,11.57
2017-12-31T08:14:35.611Z,11.58
2017-12-31T08:17:07.651Z,11.53
2017-12-31T08:19:40.035Z,11.70
2017-12-31T08:22:14.009Z,11.65
2017-12-31T08:24:47.843Z,11.61
2017-12-31T08:27:20.407Z,11.58
2017-12-31T08:29:50.597Z,11.65
2017-12-31T08:32:20.896Z,11.61
2017-12-31T08:34:51.335Z,11.68
2017-12-31T08:37:21.377Z,11.66
2017-12-31T08:39:53.896Z,11.72
2017-12-31T08:42:32.926Z,11.69
2017-12-31T08:45:05.706Z,11.81
2017-12-31T08:47:37.462Z,11.85
2017-12-31T08:50:13.649Z,11.77
2017-12-31T08:52:47.631Z,11.83
2017-12-31T08:55:22.874Z,11.90
2017-12-31T08:57:55.176Z,11.91
2017-12-31T09:00:33.702Z,12.00
2017-12-31T09:03:03.749Z,11.97
2017-12-31T09:05:34.166Z,12.00
2017-12-31T09:08:04.714Z,12.06
2017-12-31T09:10:35.585Z,12.02
2017-12-31T09:13:07.678Z,12.08
2017-12-31T09:15:40.517Z,12.08
2017-12-31T09:18:14.090Z,12.19
2017-12-31T09:21:03.757Z,12.34
2017-12-31T09:23:35.352Z,12.41
2017-12-31T09:26:10.558Z,12.42
2017-12-31T09:28:45.568Z,12.49
2017-12-31T09:31:16.597Z,12.46
2017-12-31T09:34:05.062Z,12.49
2017-12-31T09:36:37.268Z,12.50
2017-12-31T09:39:12.280Z,12.48
2017-12-31T09:41:50.670Z,12.46
2017-12-31T09:50:16.007Z,12.56
2017-12-31T09:52:52.211Z,12.57
2017-12-31T09:58:06.501Z,12.50
2017-12-31T10:00:43.019Z,12.60
2017-12-31T10:03:18.515Z,12.62
2017-12-31T10:05:55.685Z,12.66
2017-12-31T10:08:31.980Z,12.74
2017-12-31T10:11:02.778Z,12.84
2017-12-31T10:13:34.960Z,12.86
2017-12-31T10:16:05.616Z,12.76
2017-12-31T10:21:42.811Z,12.78
2017-12-31T10:24:15.202Z,12.90
2017-12-31T10:26:47.076Z,12.79
2017-12-31T10:29:17.734Z,12.76
2017-12-31T10:31:50.406Z,12.85
2017-12-31T10:34:20.641Z,12.93
2017-12-31T10:37:04.036Z,12.99
2017-12-31T10:39:34.158Z,13.05
2017-12-31T10:42:12.928Z,13.15
2017-12-31T10:44:58.969Z,13.23
2017-12-31T10:47:48.145Z,13.22
2017-12-31T10:50:18.120Z,13.15
2017-12-31T10:52:50.730Z,13.22
2017-12-31T10:55:20.853Z,13.19
2017-12-31T10:57:56.071Z,13.28
2017-12-31T11:00:34.945Z,13.22
2017-12-31T11:03:12.622Z,13.16
2017-12-31T11:05:44.532Z,13.14
2017-12-31T11:08:14.633Z,13.08
2017-12-31T11:10:44.993Z,13.13
2017-12-31T11:13:17.342Z,13.02
2017-12-31T11:15:47.131Z,12.96
2017-12-31T11:18:19.470Z,12.98
2017-12-31T11:20:50.133Z,12.94
2017-12-31T11:23:19.607Z,13.04
2017-12-31T11:25:49.746Z,12.92
2017-12-31T11:28:19.437Z,12.82
2017-12-31T11:30:51.357Z,12.95
2017-12-31T11:33:22.103Z,12.89
2017-12-31T11:35:52.369Z,12.91
2017-12-31T11:38:27.020Z,12.91
2017-12-31T11:40:58.742Z,12.99
2017-12-31T11:43:28.551Z,12.97
2017-12-31T11:45:58.722Z,12.91
2017-12-31T11:48:28.665Z,12.90
2017-12-31T11:50:59.587Z,12.91
2017-12-31T11:53:34.328Z,12.97
2017-12-31T11:56:05.734Z,13.16
2017-12-31T11:58:35.958Z,13.29
2017-12-31T12:01:08.914Z,13.22
2017-12-31T12:03:39.002Z,13.28
2017-12-31T12:06:12.588Z,13.30
2017-12-31T12:08:42.775Z,13.34
2017-12-31T12:11:12.751Z,13.24
2017-12-31T12:13:43.105Z,13.19
2017-12-31T12:16:12.921Z,13.26
2017-12-31T12:18:44.198Z,13.31
2017-12-31T12:21:14.522Z,13.15
2017-12-31T12:23:44.183Z,13.20
2017-12-31T12:26:14.180Z,13.09
2017-12-31T12:28:44.079Z,13.11
2017-12-31T12:31:13.709Z,13.06
2017-12-31T12:33:45.159Z,13.05
2017-12-31T12:36:14.787Z,13.06
2017-12-31T12:38:45.349Z,13.05
2017-12-31T12:41:15.392Z,13.04
2017-12-31T12:43:45.224Z,13.02
2017-12-31T12:46:15.704Z,13.04
2017-12-31T12:48:47.695Z,12.95
2017-12-31T12:51:17.810Z,12.99
2017-12-31T12:53:47.685Z,12.99
2017-12-31T12:56:18.056Z,12.98
2017-12-31T12:58:50.771Z,13.03
2017-12-31T13:01:24.687Z,13.11
2017-12-31T13:03:56.832Z,13.06
2017-12-31T13:06:28.143Z,12.94
2017-12-31T13:08:59.198Z,12.99
2017-12-31T13:11:32.522Z,12.98
2017-12-31T13:14:04.955Z,12.85
2017-12-31T13:16:40.363Z,12.89
2017-12-31T13:19:10.337Z,12.83
2017-12-31T13:21:40.175Z,12.81
2017-12-31T13:24:10.114Z,12.81
2017-12-31T13:26:41.663Z,12.79
2017-12-31T13:29:12.286Z,12.69
2017-12-31T13:31:42.795Z,12.81
2017-12-31T13:34:12.605Z,12.58
2017-12-31T13:36:43.693Z,12.70
2017-12-31T13:39:14.506Z,12.64
2017-12-31T13:41:47.804Z,12.71
2017-12-31T13:44:18.865Z,12.72
2017-12-31T13:46:50.824Z,12.68
2017-12-31T13:49:22.373Z,12.70
2017-12-31T13:51:53.971Z,12.69
2017-12-31T13:54:24.453Z,12.63
2017-12-31T13:56:55.381Z,12.54
2017-12-31T13:59:26.334Z,12.52
2017-12-31T14:01:56.858Z,12.54
2017-12-31T14:04:26.353Z,12.49
2017-12-31T14:06:56.981Z,12.48
2017-12-31T14:09:29.911Z,12.46
2017-12-31T14:11:59.936Z,12.54
2017-12-31T14:14:30.353Z,12.51
2017-12-31T14:16:59.971Z,12.44
2017-12-31T14:19:30.505Z,12.55
2017-12-31T14:22:00.547Z,12.48
2017-12-31T14:24:30.303Z,12.56
2017-12-31T14:27:02.579Z,12.51
2017-12-31T14:29:36.014Z,12.57
2017-12-31T14:32:06.447Z,12.52
2017-12-31T14:34:36.921Z,12.41
2017-12-31T14:37:08.610Z,12.53
2017-12-31T14:39:39.169Z,12.48
2017-12-31T14:42:11.996Z,12.37
2017-12-31T14:44:43.645Z,12.28
2017-12-31T14:47:15.875Z,12.33
2017-12-31T14:49:48.012Z,12.40
2017-12-31T14:52:18.553Z,12.40
2017-12-31T14:54:49.494Z,12.42
2017-12-31T14:57:20.866Z,12.26
2017-12-31T14:59:51.574Z,12.35
2017-12-31T15:02:21.326Z,12.27
2017-12-31T15:04:52.012Z,12.24
2017-12-31T15:07:23.654Z,12.17
2017-12-31T15:09:54.518Z,12.20
2017-12-31T15:12:24.476Z,12.29
2017-12-31T15:14:54.299Z,12.22
2017-12-31T15:17:24.748Z,12.19
2017-12-31T15:19:55.228Z,12.09
2017-12-31T15:22:25.286Z,12.32
2017-12-31T15:24:55.060Z,12.16
2017-12-31T15:27:26.194Z,12.09
2017-12-31T15:29:58.626Z,12.19
2017-12-31T15:32:29.111Z,12.11
2017-12-31T15:34:59.004Z,12.04
2017-12-31T15:37:29.777Z,11.97
2017-12-31T15:40:00.601Z,11.91
2017-12-31T15:42:30.153Z,11.98
2017-12-31T15:45:00.612Z,11.99
2017-12-31T15:47:32.029Z,11.98
2017-12-31T15:50:02.012Z,11.91
2017-12-31T15:52:31.949Z,12.01
2017-12-31T15:55:02.888Z,11.86
2017-12-31T15:57:33.861Z,11.88
2017-12-31T16:00:05.021Z,11.87
2017-12-31T16:02:35.137Z,11.91
2017-12-31T16:05:07.095Z,11.96
2017-12-31T16:07:40.473Z,12.00
2017-12-31T16:10:10.756Z,11.95
2017-12-31T16:12:40.935Z,11.99
2017-12-31T16:15:11.452Z,11.94
2017-12-31T16:17:42.513Z,11.94
2017-12-31T16:20:15.305Z,11.94
2017-12-31T16:22:46.287Z,11.89
2017-12-31T16:25:17.269Z,11.90
2017-12-31T16:27:47.571Z,11.93
2017-12-31T16:30:17.531Z,11.95
2017-12-31T16:32:53.106Z,11.95
2017-12-31T16:35:24.119Z,11.95
2017-12-31T16:37:54.312Z,11.90
2017-12-31T16:40:23.992Z,11.91
2017-12-31T16:42:54.193Z,11.94
2017-12-31T16:45:24.390Z,11.95
2017-12-31T16:47:54.940Z,11.92
2017-12-31T16:50:24.485Z,11.90
2017-12-31T16:52:54.220Z,11.90
2017-12-31T16:55:24.555Z,11.91
2017-12-31T16:57:54.925Z,11.89
2017-12-31T17:00:25.268Z,11.98
2017-12-31T17:02:55.249Z,11.96
2017-12-31T17:05:26.799Z,12.00
2017-12-31T17:07:57.164Z,11.93
2017-12-31T17:10:27.413Z,12.03
2017-12-31T17:12:57.529Z,11.94
2017-12-31T17:15:27.548Z,11.92
2017-12-31T17:17:57.291Z,11.94
2017-12-31T17:20:28.646Z,12.05
2017-12-31T17:22:58.636Z,11.92
2017-12-31T17:25:30.570Z,11.99
2017-12-31T17:28:00.559Z,11.93
2017-12-31T17:30:31.277Z,11.91
2017-12-31T17:33:05.827Z,11.91
2017-12-31T17:35:36.831Z,11.90
2017-12-31T17:38:10.576Z,11.84
2017-12-31T17:40:41.504Z,11.81
2017-12-31T17:43:12.601Z,11.80
2017-12-31T17:45:43.142Z,11.83
2017-12-31T17:48:14.644Z,11.81
2017-12-31T17:50:44.480Z,11.82
2017-12-31T17:53:15.123Z,11.80
2017-12-31T17:55:45.279Z,11.77
2017-12-31T17:58:14.802Z,11.86
2017-12-31T18:00:44.824Z,11.83
2017-12-31T18:03:17.870Z,11.83
2017-12-31T18:05:50.781Z,11.79
2017-12-31T18:08:27.757Z,11.80
2017-12-31T18:11:10.518Z,11.79
2017-12-31T18:13:47.986Z,11.75
2017-12-31T18:16:19.446Z,11.72
2017-12-31T18:18:51.286Z,11.72
2017-12-31T18:21:23.304Z,11.74
2017-12-31T18:23:57.573Z,11.76
2017-12-31T18:26:32.787Z,11.76
2017-12-31T18:29:23.377Z,11.74
2017-12-31T18:31:55.337Z,11.73
2017-12-31T18:34:26.865Z,11.77
2017-12-31T18:37:00.816Z,11.76
2017-12-31T18:39:46.472Z,11.86
2017-12-31T18:42:17.051Z,11.77
2017-12-31T18:44:52.616Z,11.79
2017-12-31T18:47:26.787Z,11.74
2017-12-31T18:50:06.746Z,11.83
2017-12-31T18:52:36.574Z,11.80
2017-12-31T18:55:25.591Z,11.73
2017-12-31T18:57:57.074Z,11.76
2017-12-31T19:00:27.907Z,11.76
2017-12-31T19:03:12.442Z,11.86
2017-12-31T19:05:53.376Z,11.77
2017-12-31T19:09:26.284Z,11.87
2017-12-31T19:11:56.304Z,11.90
2017-12-31T19:14:28.273Z,11.81
2017-12-31T19:16:58.343Z,11.89
2017-12-31T19:19:30.210Z,11.82
2017-12-31T19:22:03.157Z,11.74
2017-12-31T19:24:37.773Z,11.76
2017-12-31T19:27:12.048Z,11.79
2017-12-31T19:29:42.955Z,11.72
2017-12-31T19:32:13.028Z,11.67
2017-12-31T19:35:16.967Z,11.63
2017-12-31T19:37:51.966Z,11.66
2017-12-31T19:40:26.914Z,11.59
2017-12-31T19:42:58.347Z,11.54
2017-12-31T19:45:29.754Z,11.58
2017-12-31T19:48:00.124Z,11.55
2017-12-31T19:50:29.946Z,11.51
2017-12-31T19:52:59.469Z,11.51
2017-12-31T19:55:29.253Z,11.57
2017-12-31T19:57:58.888Z,11.49
2017-12-31T20:00:28.673Z,11.44
2017-12-31T20:02:58.547Z,11.41
2017-12-31T20:05:28.136Z,11.44
2017-12-31T20:07:57.848Z,11.40
2017-12-31T20:10:27.626Z,11.38
2017-12-31T20:12:57.631Z,11.40
2017-12-31T20:15:33.276Z,11.36
2017-12-31T20:18:02.870Z,11.31
2017-12-31T20:20:32.433Z,11.40
2017-12-31T20:23:02.070Z,11.26
2017-12-31T20:25:31.910Z,11.19
2017-12-31T20:28:04.889Z,11.23
2017-12-31T20:30:35.184Z,11.20
2017-12-31T20:33:05.527Z,11.22
2017-12-31T20:35:35.126Z,11.17
2017-12-31T20:38:05.967Z,11.25
2017-12-31T20:40:36.942Z,11.28
2017-12-31T20:43:07.071Z,11.25
2017-12-31T20:45:39.225Z,11.31
2017-12-31T20:48:10.317Z,11.23
2017-12-31T20:50:40.034Z,11.35
2017-12-31T20:53:10.361Z,11.25
2017-12-31T20:55:41.783Z,11.28
2017-12-31T20:58:11.956Z,11.45
2017-12-31T21:00:42.170Z,11.33
2017-12-31T21:03:12.796Z,11.27
2017-12-31T21:05:44.420Z,11.46
2017-12-31T21:08:16.049Z,11.34
2017-12-31T21:10:47.412Z,11.47
2017-12-31T21:13:17.509Z,11.49
2017-12-31T21:15:48.556Z,11.39
2017-12-31T21:18:18.481Z,11.52
2017-12-31T21:20:48.290Z,11.45
2017-12-31T21:23:19.154Z,11.59
2017-12-31T21:25:48.916Z,11.55
2017-12-31T21:28:20.086Z,11.50
2017-12-31T21:30:50.499Z,11.48
2017-12-31T21:33:23.363Z,11.48
2017-12-31T21:35:53.597Z,11.50
2017-12-31T21:38:24.269Z,11.50
2017-12-31T21:40:54.906Z,11.59
2017-12-31T21:43:25.664Z,11.46
2017-12-31T21:45:57.060Z,11.41
2017-12-31T21:48:28.444Z,11.49
2017-12-31T21:50:58.375Z,11.61
2017-12-31T21:53:28.382Z,11.56
2017-12-31T21:55:59.712Z,11.57
2017-12-31T21:58:30.015Z,11.62
2017-12-31T22:01:01.004Z,11.57
2017-12-31T22:03:31.817Z,11.66
2017-12-31T22:06:04.362Z,11.60
2017-12-31T22:08:37.749Z,11.68
2017-12-31T22:11:08.439Z,11.74
2017-12-31T22:13:40.211Z,11.69
2017-12-31T22:16:10.021Z,11.69
2017-12-31T22:18:39.778Z,11.61
2017-12-31T22:21:10.160Z,11.68
2017-12-31T22:23:42.408Z,11.64
2017-12-31T22:26:13.582Z,11.57
2017-12-31T22:28:45.453Z,11.57
2017-12-31T22:31:17.585Z,11.65
2017-12-31T22:33:49.410Z,11.64
2017-12-31T22:36:22.036Z,11.63
2017-12-31T22:38:52.627Z,11.70
2017-12-31T22:41:22.675Z,11.66
2017-12-31T22:43:54.344Z,11.58
2017-12-31T22:46:25.486Z,11.60
2017-12-31T22:48:57.574Z,11.58
2017-12-31T22:51:27.805Z,11.53
2017-12-31T22:53:58.375Z,11.54
2017-12-31T22:56:28.796Z,11.50
2017-12-31T22:58:59.222Z,11.52
2017-12-31T23:01:29.888Z,11.60
2017-12-31T23:04:02.208Z,11.60
2017-12-31T23:06:33.330Z,11.67
2017-12-31T23:09:05.467Z,11.74
2017-12-31T23:11:37.087Z,11.72
2017-12-31T23:14:07.917Z,11.82
2017-12-31T23:16:39.534Z,11.79
2017-12-31T23:19:10.657Z,11.79
2017-12-31T23:21:42.190Z,11.77
2017-12-31T23:24:13.114Z,11.74
2017-12-31T23:26:45.557Z,11.81
2017-12-31T23:29:16.706Z,11.78
2017-12-31T23:31:50.204Z,11.76
2017-12-31T23:34:23.132Z,11.78
2017-12-31T23:36:56.645Z,11.79
2017-12-31T23:39:28.934Z,11.76
2017-12-31T23:42:05.835Z,11.73
2017-12-31T23:44:38.270Z,11.72
2017-12-31T23:47:11.474Z,11.69
2017-12-31T23:49:42.976Z,11.76
2017-12-31T23:52:13.846Z,11.70
2017-12-31T23:54:45.103Z,11.63
2017-12-31T23:57:16.102Z,11.63
2017-12-31T23:59:46.396Z,11.63
